Time;durP1;ratioP1;P1;durP2;ratioP2;P2;SDS_P1;SDS_P2;PMS_P1;PMS_P2;Temp;Humidity;BMP_temperature;BMP_pressure;BME280_temperature;BME280_humidity;BME280_pressure;Samples;Min_cycle;Max_cycle;Signal;HPM_P1;HPM_P2
2021/12/19 00:03:04;;;;;;;6.60;5.90;;;;;;;6.92;61.37;99463.66;8249329;28;20256;-77
2021/12/19 00:11:29;;;;;;;6.43;5.70;;;;;;;7.01;61.04;99450.75;8217597;28;20237;-77
2021/12/19 00:15:33;;;;;;;6.97;6.27;;;;;;;7.26;60.54;99445.44;8218113;28;20239;-78
2021/12/19 00:19:36;;;;;;;6.87;6.00;;;;;;;7.28;59.78;99445.41;8218059;28;20231;-78
2021/12/19 00:23:40;;;;;;;7.00;6.00;;;;;;;7.22;60.10;99434.28;8217957;28;20242;-77
2021/12/19 00:27:43;;;;;;;6.77;6.07;;;;;;;7.29;60.25;99429.06;8217774;28;20241;-77
2021/12/19 00:31:48;;;;;;;7.33;6.00;;;;;;;7.11;60.37;99432.66;8217843;28;20560;-78
2021/12/19 00:35:51;;;;;;;6.30;5.63;;;;;;;7.16;60.75;99428.31;8218024;28;20238;-78
2021/12/19 00:39:54;;;;;;;6.83;6.13;;;;;;;7.26;60.31;99431.69;8218349;28;20238;-78
2021/12/19 00:44:07;;;;;;;6.83;6.10;;;;;;;7.32;60.42;99436.78;8223995;28;20250;-77
2021/12/19 00:48:12;;;;;;;6.70;6.00;;;;;;;7.10;60.48;99430.94;8223937;28;20246;-77
2021/12/19 00:52:15;;;;;;;7.27;6.27;;;;;;;7.25;60.53;99430.81;8254747;28;20238;-77
2021/12/19 00:56:18;;;;;;;7.07;6.27;;;;;;;7.22;60.71;99431.69;8255040;28;20234;-77
2021/12/19 01:00:24;;;;;;;8.17;6.30;;;;;;;7.30;60.53;99433.38;8255611;28;20509;-77
2021/12/19 01:04:29;;;;;;;7.13;6.03;;;;;;;7.32;60.78;99429.06;8254874;28;20433;-77
2021/12/19 01:08:32;;;;;;;8.40;7.30;;;;;;;7.16;60.94;99418.00;8254653;28;20246;-78
2021/12/19 01:12:37;;;;;;;7.90;6.93;;;;;;;7.32;60.73;99429.06;8254697;28;20245;-78
2021/12/19 01:16:40;;;;;;;8.07;6.77;;;;;;;7.14;61.26;99424.88;8255033;28;20524;-78
2021/12/19 01:20:45;;;;;;;7.70;6.87;;;;;;;7.20;60.77;99417.13;8254826;28;20237;-77
2021/12/19 01:24:47;;;;;;;7.53;6.73;;;;;;;7.07;61.56;99412.94;8254334;28;20559;-78
2021/12/19 01:28:50;;;;;;;7.03;6.27;;;;;;;7.19;61.33;99416.25;8253892;28;20234;-78
2021/12/19 01:32:54;;;;;;;7.50;5.70;;;;;;;7.09;61.56;99414.63;8253914;28;20238;-78
2021/12/19 01:36:58;;;;;;;7.27;6.37;;;;;;;7.09;61.06;99414.63;8253999;28;20261;-78
2021/12/19 01:41:01;;;;;;;7.57;6.20;;;;;;;7.22;60.89;99421.41;8253879;28;20238;-78
2021/12/19 01:45:06;;;;;;;7.83;6.33;;;;;;;7.13;61.69;99418.88;8255228;28;20242;-78
2021/12/19 01:49:09;;;;;;;6.20;5.30;;;;;;;7.33;60.87;99400.72;8255828;28;20209;-77
2021/12/19 01:53:14;;;;;;;6.20;5.00;;;;;;;7.18;61.18;99411.13;8252423;28;20265;-77
2021/12/19 01:57:17;;;;;;;5.77;4.80;;;;;;;7.24;61.41;99405.94;8253299;28;20234;-77
2021/12/19 02:01:20;;;;;;;5.20;4.57;;;;;;;7.01;62.16;99394.06;8253191;28;20234;-77
2021/12/19 02:05:25;;;;;;;4.93;4.43;;;;;;;7.11;61.89;99388.84;8253007;28;20245;-77
2021/12/19 02:09:29;;;;;;;5.07;4.53;;;;;;;7.26;61.48;99393.88;8253051;28;20256;-77
2021/12/19 02:13:32;;;;;;;5.37;4.60;;;;;;;7.28;61.27;99383.56;8252665;28;20234;-78
2021/12/19 02:17:35;;;;;;;4.87;4.27;;;;;;;7.16;61.68;99377.66;8252860;28;20508;-77
2021/12/19 02:21:41;;;;;;;4.80;4.30;;;;;;;7.03;61.94;99364.00;8252895;28;20241;-78
2021/12/19 02:25:44;;;;;;;5.53;4.80;;;;;;;7.20;61.39;99368.19;8252542;28;20241;-77
2021/12/19 02:29:47;;;;;;;5.43;4.80;;;;;;;7.28;61.64;99368.13;8252288;28;20226;-78
2021/12/19 02:34:02;;;;;;;5.20;4.70;;;;;;;7.15;62.15;99363.03;8252225;28;20245;-78
2021/12/19 02:38:37;;;;;;;5.77;4.97;;;;;;;7.26;62.04;99364.69;8252507;28;20234;-77
2021/12/19 02:51:35;;;;;;;6.00;5.40;;;;;;;7.07;62.48;99351.97;8234936;28;20241;-77
2021/12/19 02:55:40;;;;;;;7.07;5.80;;;;;;;7.14;62.04;99365.63;8251565;28;20234;-77
2021/12/19 02:59:43;;;;;;;6.53;5.63;;;;;;;7.10;62.75;99346.78;8251164;28;20230;-77
2021/12/19 03:03:46;;;;;;;6.67;5.67;;;;;;;7.14;62.26;99348.47;8250774;28;20231;-78
2021/12/19 03:07:51;;;;;;;6.23;5.63;;;;;;;7.30;62.26;99338.03;8251284;28;20231;-78
2021/12/19 03:20:37;;;;;;;6.27;5.47;;;;;;;7.12;62.63;99323.56;8251162;28;20237;-77
2021/12/19 03:24:40;;;;;;;6.13;5.20;;;;;;;7.22;61.94;99318.34;8250943;28;20234;-77
2021/12/19 03:28:44;;;;;;;6.20;5.17;;;;;;;7.24;62.06;99316.59;8250733;28;20559;-77
2021/12/19 03:32:47;;;;;;;5.77;5.17;;;;;;;7.33;62.40;99325.97;8250060;28;20237;-77
2021/12/19 03:36:52;;;;;;;7.17;5.60;;;;;;;7.20;61.89;99309.75;8250418;28;20249;-76
2021/12/19 03:41:10;;;;;;;7.87;6.10;;;;;;;7.26;62.07;99308.00;8250681;28;20238;-77
2021/12/19 03:45:17;;;;;;;5.73;5.13;;;;;;;7.37;62.02;99301.88;8250072;28;20559;-76
2021/12/19 03:49:20;;;;;;;6.83;5.77;;;;;;;7.20;62.95;99308.91;8250286;28;20229;-76
2021/12/19 03:53:23;;;;;;;6.70;5.43;;;;;;;7.28;62.27;99312.25;8249999;28;20238;-77
2021/12/19 03:57:26;;;;;;;5.93;5.33;;;;;;;7.10;63.35;99303.00;8250151;28;20245;-77
2021/12/19 04:01:30;;;;;;;5.90;5.03;;;;;;;7.15;62.80;99300.38;8249876;28;20238;-76
2021/12/19 04:05:33;;;;;;;6.93;5.40;;;;;;;7.31;62.87;99303.63;8249523;28;20241;-77
2021/12/19 04:09:36;;;;;;;6.53;5.67;;;;;;;7.15;62.32;99288.34;8249986;28;20548;-77
2021/12/19 04:13:39;;;;;;;6.53;5.43;;;;;;;7.36;62.11;99276.13;8249822;28;20238;-77
2021/12/19 04:17:44;;;;;;;6.33;5.27;;;;;;;7.44;62.20;99272.59;8255169;28;20424;-77
2021/12/19 04:21:47;;;;;;;6.13;5.53;;;;;;;7.44;62.23;99263.97;8256450;28;20344;-77
2021/12/19 04:25:52;;;;;;;6.13;5.27;;;;;;;7.43;62.56;99265.72;8256499;28;20532;-77
2021/12/19 04:29:55;;;;;;;6.13;5.30;;;;;;;6.67;64.02;99267.28;8256580;28;20249;-77
2021/12/19 04:33:59;;;;;;;6.33;5.10;;;;;;;7.28;62.65;99265.03;8256072;28;20544;-77
2021/12/19 04:43:33;;;;;;;5.87;5.27;;;;;;;7.15;63.08;99254.84;8214335;28;20234;-77
2021/12/19 04:51:50;;;;;;;6.50;4.20;;;;;;;7.36;62.82;99247.75;8233561;28;20236;-77
2021/12/19 05:00:17;;;;;;;5.23;4.73;;;;;;;7.40;62.66;99239.97;8247054;28;20230;-77
2021/12/19 05:04:40;;;;;;;6.33;4.70;;;;;;;7.36;62.49;99227.16;8255000;28;20246;-77
2021/12/19 05:17:27;;;;;;;5.20;4.70;;;;;;;7.37;62.41;99224.56;8248178;28;20230;-77
2021/12/19 05:21:30;;;;;;;5.50;5.00;;;;;;;7.47;62.44;99215.00;8254419;28;20234;-77
2021/12/19 05:25:34;;;;;;;5.53;4.97;;;;;;;7.40;62.77;99214.19;8254339;28;20237;-77
2021/12/19 05:29:38;;;;;;;6.03;5.10;;;;;;;7.49;62.78;99210.66;8253465;28;20234;-77
2021/12/19 05:33:41;;;;;;;5.93;5.20;;;;;;;7.37;62.72;99219.41;8254168;28;20249;-77
2021/12/19 05:46:27;;;;;;;5.43;4.93;;;;;;;7.55;62.03;99215.75;8247782;28;20237;-77
2021/12/19 05:50:30;;;;;;;5.97;5.30;;;;;;;7.58;62.25;99212.28;8253945;28;20249;-77
2021/12/19 05:54:33;;;;;;;6.27;5.30;;;;;;;7.44;62.62;99215.88;8254238;28;20234;-77
2021/12/19 05:58:37;;;;;;;5.20;4.70;;;;;;;7.44;62.39;99194.41;8253787;28;20407;-77
2021/12/19 06:02:41;;;;;;;5.13;4.73;;;;;;;7.52;62.44;99202.91;8272384;28;20237;-77
2021/12/19 06:06:46;;;;;;;5.20;4.80;;;;;;;7.32;63.30;99197.97;8253160;28;20301;-77
2021/12/19 06:10:49;;;;;;;4.60;4.20;;;;;;;7.50;62.59;99194.34;8252094;28;20230;-77
2021/12/19 06:14:53;;;;;;;4.77;4.37;;;;;;;7.49;62.83;99200.34;8251861;28;20238;-76
2021/12/19 06:18:56;;;;;;;5.83;5.33;;;;;;;7.37;63.14;99192.78;8251888;28;20229;-77
2021/12/19 06:22:59;;;;;;;5.40;4.47;;;;;;;7.47;62.86;99196.94;8251982;28;20233;-77
2021/12/19 06:27:02;;;;;;;4.80;4.40;;;;;;;7.67;62.45;99194.09;8249433;28;20240;-77
2021/12/19 06:31:07;;;;;;;5.20;4.70;;;;;;;7.45;62.91;99180.66;8251532;28;20234;-77
2021/12/19 06:35:18;;;;;;;5.47;4.97;;;;;;;7.44;62.68;99187.53;8251662;28;20249;-77
2021/12/19 06:39:22;;;;;;;5.40;4.90;;;;;;;7.71;61.93;99187.19;8251169;28;20222;-77
2021/12/19 06:43:26;;;;;;;5.17;4.70;;;;;;;7.56;61.93;99178.78;8251133;28;20233;-77
2021/12/19 06:47:31;;;;;;;5.17;4.77;;;;;;;7.52;62.26;99182.28;8250984;28;20230;-77
2021/12/19 06:51:34;;;;;;;5.03;4.53;;;;;;;7.54;61.70;99184.81;8250709;28;20226;-77
2021/12/19 06:55:38;;;;;;;5.33;4.90;;;;;;;7.44;61.76;99177.22;8251070;28;20238;-77
2021/12/19 06:59:41;;;;;;;5.50;5.10;;;;;;;7.46;61.79;99177.19;8251200;28;20234;-77
2021/12/19 07:03:46;;;;;;;5.40;4.90;;;;;;;7.37;62.17;99179.91;8250727;28;20238;-77
2021/12/19 07:07:53;;;;;;;5.60;5.20;;;;;;;7.38;62.24;99187.59;8251406;28;20242;-77
2021/12/19 07:11:56;;;;;;;4.90;4.50;;;;;;;7.52;61.79;99197.75;8251453;28;20241;-77
2021/12/19 07:16:00;;;;;;;5.40;5.00;;;;;;;7.57;61.75;99182.22;8250864;28;20248;-77
2021/12/19 07:20:05;;;;;;;5.53;5.10;;;;;;;7.57;61.41;99184.78;8250678;28;20237;-77
2021/12/19 07:24:08;;;;;;;5.10;4.70;;;;;;;7.59;61.48;99167.56;8251251;28;20245;-77
2021/12/19 07:28:12;;;;;;;6.17;5.20;;;;;;;7.36;62.03;99173.88;8250750;28;20245;-77
2021/12/19 07:32:15;;;;;;;5.17;4.73;;;;;;;7.45;61.87;99172.91;8242821;28;20548;-77
2021/12/19 07:36:23;;;;;;;6.20;5.20;;;;;;;7.58;61.29;99161.56;8250836;28;20249;-76
2021/12/19 07:40:35;;;;;;;6.33;5.73;;;;;;;7.75;61.08;99156.19;8258328;28;20429;-77
2021/12/19 07:44:39;;;;;;;6.80;5.37;;;;;;;7.71;61.53;99161.41;8250517;28;20238;-77
2021/12/19 07:48:42;;;;;;;6.70;5.90;;;;;;;7.83;61.24;99154.34;8250094;28;20229;-76
2021/12/19 07:52:47;;;;;;;7.87;7.17;;;;;;;7.83;61.26;99156.09;8249419;28;20230;-76
2021/12/19 07:56:51;;;;;;;7.97;7.20;;;;;;;7.76;61.37;99139.84;8246425;28;20230;-77
2021/12/19 08:00:54;;;;;;;8.77;7.97;;;;;;;7.61;62.01;99146.06;8249777;28;20234;-76
2021/12/19 08:04:57;;;;;;;7.87;7.17;;;;;;;7.76;61.42;99139.00;8249320;28;20321;-76
2021/12/19 08:09:08;;;;;;;8.63;7.83;;;;;;;7.75;61.46;99135.56;8249581;28;20233;-76
2021/12/19 08:13:11;;;;;;;8.80;8.00;;;;;;;7.81;61.20;99135.47;8246800;28;20230;-75
2021/12/19 08:17:14;;;;;;;8.87;8.07;;;;;;;7.71;61.74;99128.75;8240693;28;20241;-76
2021/12/19 08:21:17;;;;;;;20.17;6.00;;;;;;;8.65;79.50;99118.69;8249489;28;20541;-71
2021/12/19 08:25:22;;;;;;;10.17;9.27;;;;;;;9.33;62.17;99105.28;8249308;28;20233;-76
2021/12/19 08:29:25;;;;;;;10.37;9.47;;;;;;;8.47;60.31;99091.44;8248805;28;20230;-77
2021/12/19 08:33:28;;;;;;;11.20;10.20;;;;;;;8.28;60.72;99081.44;8248710;28;20226;-77
2021/12/19 08:37:31;;;;;;;11.73;10.57;;;;;;;8.16;60.77;99092.78;8248956;28;27273;-77
2021/12/19 08:41:35;;;;;;;12.57;11.10;;;;;;;7.90;61.65;99098.38;8248937;28;20341;-73
2021/12/19 08:45:39;;;;;;;11.30;10.20;;;;;;;7.90;61.55;99095.81;8248270;28;20234;-74
2021/12/19 08:49:44;;;;;;;12.57;11.27;;;;;;;7.82;61.89;99087.31;8248594;28;20229;-73
2021/12/19 08:53:47;;;;;;;12.83;11.63;;;;;;;7.83;61.76;99084.72;8248740;28;20230;-74
2021/12/19 08:57:52;;;;;;;12.87;11.67;;;;;;;8.03;61.17;99087.00;8248756;28;20230;-74
2021/12/19 09:01:57;;;;;;;13.60;12.30;;;;;;;7.69;63.04;99090.94;8253725;28;20230;-73
2021/12/19 09:06:01;;;;;;;15.23;13.70;;;;;;;7.70;62.53;99084.94;8254779;28;20246;-74
2021/12/19 09:10:06;;;;;;;14.40;13.07;;;;;;;7.55;62.97;99086.84;8254386;28;20260;-74
2021/12/19 09:14:10;;;;;;;13.57;12.27;;;;;;;7.73;61.80;99078.00;8253882;28;20567;-73
2021/12/19 09:18:14;;;;;;;15.13;12.90;;;;;;;7.28;63.24;99074.34;8235048;28;20233;-73
2021/12/19 09:22:16;;;;;;;14.77;13.10;;;;;;;7.76;61.96;99077.09;8244101;28;20563;-74
2021/12/19 09:26:19;;;;;;;13.67;12.47;;;;;;;7.55;62.33;99078.28;8252828;28;20229;-74
2021/12/19 09:30:25;;;;;;;13.27;8.13;;;;;;;10.24;78.98;99065.22;8252182;28;20234;-69
2021/12/19 09:34:29;;;;;;;14.33;13.03;;;;;;;8.83;59.70;99074.41;8253474;28;20230;-73
2021/12/19 09:38:34;;;;;;;14.17;12.90;;;;;;;8.44;60.31;99063.13;8253847;28;20362;-73
2021/12/19 09:42:45;;;;;;;14.53;13.23;;;;;;;8.30;60.88;99060.72;8253016;28;20230;-74
2021/12/19 09:46:50;;;;;;;13.77;12.47;;;;;;;7.97;61.49;99060.44;8253041;28;20536;-74
2021/12/19 09:50:53;;;;;;;13.63;12.43;;;;;;;8.03;60.80;99060.31;8250204;28;20234;-74
2021/12/19 09:54:56;;;;;;;13.20;12.00;;;;;;;7.95;60.90;99050.13;8252301;28;20230;-74
2021/12/19 09:58:59;;;;;;;13.37;12.17;;;;;;;7.74;61.94;99030.69;8252286;28;20230;-74
2021/12/19 10:03:04;;;;;;;12.93;11.63;;;;;;;7.58;62.60;99030.09;8249911;28;20241;-74
2021/12/19 10:07:10;;;;;;;11.83;10.73;;;;;;;7.83;61.38;99015.09;8251997;28;20252;-74
2021/12/19 10:11:31;;;;;;;13.37;12.00;;;;;;;7.46;62.13;99019.13;8242175;28;20234;-74
2021/12/19 10:15:37;;;;;;;13.47;12.17;;;;;;;7.67;61.74;99025.66;8252461;28;20238;-73
2021/12/19 10:19:46;;;;;;;14.97;13.67;;;;;;;7.65;62.16;99015.38;8252903;28;20424;-73
2021/12/19 10:23:49;;;;;;;14.23;12.87;;;;;;;7.55;62.66;99006.94;8252719;28;20234;-74
2021/12/19 10:27:54;;;;;;;14.63;13.33;;;;;;;7.75;61.56;99000.59;8253136;28;20238;-73
2021/12/19 10:32:06;;;;;;;14.17;12.77;;;;;;;7.81;62.18;98997.94;8252505;28;20234;-73
2021/12/19 10:36:11;;;;;;;15.13;13.73;;;;;;;7.59;62.17;98987.13;8249909;28;20233;-73
2021/12/19 10:40:14;;;;;;;15.47;14.07;;;;;;;7.71;62.07;98981.78;8247148;28;20245;-77
2021/12/19 10:48:45;;;;;;;12.37;11.20;;;;;;;7.57;62.53;98960.50;8241267;28;20234;-71
2021/12/19 10:52:49;;;;;;;12.40;11.30;;;;;;;7.59;62.37;98953.59;8250257;28;20231;-70
2021/12/19 10:57:06;;;;;;;12.60;11.50;;;;;;;7.66;61.83;98951.78;8247639;28;20245;-71
2021/12/19 11:01:17;;;;;;;12.67;10.97;;;;;;;7.31;62.63;98951.47;8249970;28;20237;-70
2021/12/19 11:05:35;;;;;;;11.30;10.30;;;;;;;7.51;62.30;98935.69;8243370;28;20241;-71
2021/12/19 11:09:39;;;;;;;12.30;11.10;;;;;;;7.51;62.70;98932.28;8251647;28;20234;-71
2021/12/19 11:13:43;;;;;;;12.63;11.50;;;;;;;7.34;63.00;98930.81;8250792;28;20242;-71
2021/12/19 11:17:46;;;;;;;12.40;11.30;;;;;;;7.49;62.78;98929.72;8249666;28;20253;-72
2021/12/19 11:21:49;;;;;;;11.90;10.73;;;;;;;7.70;62.52;98915.59;8249792;28;20300;-70
2021/12/19 11:25:54;;;;;;;13.13;11.83;;;;;;;7.52;63.06;98903.03;8248223;28;20238;-71
2021/12/19 11:29:58;;;;;;;12.20;11.07;;;;;;;7.76;62.00;98894.84;8249889;28;20237;-74
2021/12/19 11:34:26;;;;;;;16.00;13.80;;;;;;;7.80;62.57;98880.19;8250094;28;20524;-76
2021/12/19 11:38:29;;;;;;;12.47;11.20;;;;;;;7.86;61.59;98872.31;8235896;28;20225;-75
2021/12/19 11:42:35;;;;;;;17.07;14.77;;;;;;;7.54;62.82;98875.50;8248746;28;20234;-75
2021/12/19 11:46:43;;;;;;;17.80;15.90;;;;;;;7.69;62.17;98864.06;8249169;28;20230;-76
2021/12/19 11:50:48;;;;;;;12.00;10.90;;;;;;;7.63;62.17;98865.03;8247986;28;20240;-75
2021/12/19 11:55:22;;;;;;;11.00;10.00;;;;;;;7.47;62.39;98851.56;8249365;28;20588;-75
2021/12/19 11:59:26;;;;;;;11.87;10.70;;;;;;;7.44;63.23;98847.31;8241543;28;20230;-75
2021/12/19 12:03:35;;;;;;;11.87;10.77;;;;;;;7.59;62.37;98833.28;8250297;28;20230;-75
2021/12/19 12:08:12;;;;;;;12.40;11.17;;;;;;;7.66;62.68;98828.03;8243436;28;20282;-76
2021/12/19 12:12:26;;;;;;;12.73;11.43;;;;;;;7.83;62.70;98828.56;8216474;28;20512;-75
2021/12/19 12:16:43;;;;;;;12.53;11.30;;;;;;;7.72;62.37;98820.19;8247111;28;20246;-74
2021/12/19 12:20:46;;;;;;;12.00;10.90;;;;;;;7.66;62.01;98810.84;8248577;28;20234;-75
2021/12/19 12:25:28;;;;;;;10.70;9.70;;;;;;;7.58;62.25;98798.09;8249479;28;20230;-76
2021/12/19 12:29:32;;;;;;;10.90;9.90;;;;;;;7.71;61.42;98793.56;8241886;28;20242;-75
2021/12/19 12:33:40;;;;;;;10.77;9.77;;;;;;;7.57;61.92;98793.81;8249356;28;20245;-76
2021/12/19 12:37:44;;;;;;;10.37;9.47;;;;;;;7.67;61.85;98776.44;8252427;28;20322;-76
2021/12/19 12:42:01;;;;;;;11.20;10.17;;;;;;;7.85;61.29;98767.50;8254909;28;20242;-75
2021/12/19 12:46:07;;;;;;;11.27;10.13;;;;;;;7.73;61.95;98753.13;8255158;28;20537;-76
2021/12/19 12:50:13;;;;;;;11.50;10.50;;;;;;;7.79;61.57;98753.00;8255145;28;20425;-75
2021/12/19 12:54:20;;;;;;;12.50;11.30;;;;;;;7.65;62.49;98747.25;8253478;28;20253;-75
2021/12/19 12:58:23;;;;;;;12.50;11.23;;;;;;;7.76;61.61;98734.16;8252429;28;20241;-75
2021/12/19 13:02:30;;;;;;;12.30;11.20;;;;;;;7.87;61.57;98729.63;8255094;28;20429;-75
2021/12/19 13:06:58;;;;;;;12.87;11.67;;;;;;;7.99;61.02;98728.50;8254847;28;20238;-75
2021/12/19 13:11:01;;;;;;;12.87;11.60;;;;;;;7.97;61.06;98730.28;8254541;28;20233;-75
2021/12/19 13:15:06;;;;;;;12.90;11.70;;;;;;;7.79;61.69;98719.47;8254669;28;20422;-75
2021/12/19 13:19:09;;;;;;;14.50;13.00;;;;;;;7.98;61.48;98729.41;8254787;28;20238;-75
2021/12/19 13:23:13;;;;;;;15.37;13.77;;;;;;;7.86;61.53;98722.75;8254047;28;20474;-75
2021/12/19 13:27:18;;;;;;;15.17;13.67;;;;;;;7.98;61.95;98708.75;8254416;28;20238;-75
2021/12/19 13:31:22;;;;;;;16.63;14.93;;;;;;;7.95;61.11;98706.25;8254134;28;20238;-76
2021/12/19 13:35:28;;;;;;;15.90;14.20;;;;;;;8.04;61.80;98703.47;8254485;28;20238;-75
2021/12/19 13:39:33;;;;;;;15.73;14.23;;;;;;;8.32;60.49;98702.81;8253639;28;20234;-75
2021/12/19 13:43:40;;;;;;;16.37;14.77;;;;;;;7.87;61.41;98700.41;8253992;28;20571;-66
2021/12/19 13:47:43;;;;;;;15.70;13.90;;;;;;;8.03;61.37;98700.03;8252244;28;20341;-67
2021/12/19 13:51:47;;;;;;;14.73;13.13;;;;;;;7.98;61.01;98694.13;8253360;28;20245;-67
2021/12/19 13:55:55;;;;;;;16.20;14.53;;;;;;;8.04;60.91;98700.88;8253312;28;20544;-67
2021/12/19 13:59:58;;;;;;;16.90;15.20;;;;;;;8.08;60.60;98701.66;8253217;28;20575;-67
2021/12/19 14:04:02;;;;;;;19.03;17.00;;;;;;;8.28;60.11;98702.06;8270877;28;20241;-66
2021/12/19 14:08:24;;;;;;;17.50;15.70;;;;;;;8.03;61.33;98701.75;8255142;28;20370;-67
2021/12/19 14:12:51;;;;;;;17.40;15.00;;;;;;;8.13;60.08;98690.38;8259449;28;20457;-67
2021/12/19 14:16:58;;;;;;;16.57;13.67;;;;;;;8.08;60.52;98681.88;8252581;28;20242;-67
2021/12/19 14:21:01;;;;;;;17.53;15.50;;;;;;;8.08;60.51;98678.44;8222191;28;20242;-67
2021/12/19 14:25:07;;;;;;;17.37;15.57;;;;;;;8.08;60.06;98676.72;8220840;28;20241;-67
2021/12/19 14:29:22;;;;;;;16.63;14.93;;;;;;;7.98;59.91;98670.91;8220535;28;20537;-66
2021/12/19 14:33:37;;;;;;;17.43;15.63;;;;;;;8.03;60.22;98678.53;8252018;28;20533;-66
2021/12/19 14:37:41;;;;;;;17.20;15.30;;;;;;;7.87;60.70;98680.63;8252536;28;20238;-66
2021/12/19 14:41:44;;;;;;;18.17;15.07;;;;;;;8.21;60.01;98685.03;8252104;28;20563;-67
2021/12/19 14:45:51;;;;;;;17.47;15.33;;;;;;;8.00;60.82;98688.94;8251620;28;20234;-67
2021/12/19 14:49:54;;;;;;;18.67;15.97;;;;;;;7.83;61.12;98697.88;8259383;28;20240;-66
2021/12/19 14:54:00;;;;;;;17.63;15.40;;;;;;;8.10;60.31;98700.75;8265400;28;20226;-67
2021/12/19 14:58:05;;;;;;;18.13;15.20;;;;;;;7.94;60.66;98700.25;8252642;28;20320;-66
2021/12/19 15:02:10;;;;;;;17.40;15.53;;;;;;;7.93;60.99;98682.22;8251240;28;20250;-66
2021/12/19 15:06:20;;;;;;;17.63;15.73;;;;;;;8.03;60.91;98675.97;8249745;28;20237;-67
2021/12/19 15:10:23;;;;;;;17.97;16.03;;;;;;;8.08;60.77;98681.88;8250469;28;20234;-67
2021/12/19 15:14:27;;;;;;;17.50;15.40;;;;;;;8.22;60.44;98684.13;8246181;28;20241;-66
2021/12/19 15:18:32;;;;;;;18.90;16.30;;;;;;;8.21;60.55;98685.03;8251401;28;20234;-66
2021/12/19 15:22:37;;;;;;;18.03;16.13;;;;;;;8.18;60.51;98665.28;8251391;28;20230;-66
2021/12/19 15:26:41;;;;;;;20.37;15.53;;;;;;;8.32;60.09;98672.72;8229897;28;20233;-66
2021/12/19 15:30:44;;;;;;;21.50;17.30;;;;;;;8.39;59.80;98669.06;8248768;28;20233;-66
2021/12/19 15:34:49;;;;;;;23.53;19.50;;;;;;;8.35;60.03;98664.03;8249624;28;20334;-66
2021/12/19 15:38:52;;;;;;;23.17;19.40;;;;;;;8.33;60.16;98664.06;8249489;28;20234;-66
2021/12/19 15:42:55;;;;;;;21.13;18.77;;;;;;;8.56;59.53;98657.53;8249960;28;20233;-66
2021/12/19 15:46:58;;;;;;;21.63;18.10;;;;;;;8.36;60.23;98656.28;8249539;28;20240;-66
2021/12/19 15:51:02;;;;;;;22.37;19.07;;;;;;;8.35;59.82;98644.25;8249876;28;20306;-66
2021/12/19 15:55:07;;;;;;;22.93;19.03;;;;;;;8.41;60.11;98643.25;8250220;28;20241;-66
2021/12/19 15:59:11;;;;;;;24.73;19.40;;;;;;;8.33;60.05;98642.59;8250305;28;20249;-66
2021/12/19 16:03:14;;;;;;;22.60;19.93;;;;;;;8.53;59.63;98655.03;8241825;28;20230;-67
2021/12/19 16:07:19;;;;;;;22.33;18.60;;;;;;;8.37;59.60;98647.63;8239458;28;20513;-67
2021/12/19 16:11:22;;;;;;;25.17;19.83;;;;;;;8.50;59.93;98647.38;8254191;28;20237;-67
2021/12/19 16:15:25;;;;;;;22.03;19.63;;;;;;;8.57;59.72;98641.16;8257624;28;20233;-67
2021/12/19 16:19:28;;;;;;;22.13;19.37;;;;;;;8.40;59.83;98641.56;8254717;28;20238;-66
2021/12/19 16:23:33;;;;;;;21.13;17.57;;;;;;;8.52;59.56;98630.09;8254618;28;27574;-66
2021/12/19 16:27:39;;;;;;;22.40;18.87;;;;;;;8.37;60.14;98624.41;8254694;28;20240;-66
2021/12/19 16:31:42;;;;;;;22.87;19.07;;;;;;;8.17;60.86;98621.47;8255706;28;20233;-67
2021/12/19 16:35:45;;;;;;;23.63;19.53;;;;;;;8.55;60.01;98637.78;8256253;28;20256;-66
2021/12/19 16:39:50;;;;;;;25.23;20.87;;;;;;;8.55;59.65;98623.13;8255833;28;20242;-66
2021/12/19 16:43:57;;;;;;;23.73;18.27;;;;;;;8.62;59.76;98626.38;8256027;28;20234;-67
2021/12/19 16:48:00;;;;;;;22.90;19.03;;;;;;;8.66;59.31;98622.84;8255836;28;20297;-66
2021/12/19 16:52:03;;;;;;;24.90;20.63;;;;;;;8.39;60.09;98626.94;8246003;28;20242;-66
2021/12/19 16:56:09;;;;;;;26.43;21.80;;;;;;;8.64;59.45;98618.59;8255584;28;20421;-66
2021/12/19 17:00:14;;;;;;;24.97;19.30;;;;;;;8.44;59.60;98609.66;8254746;28;20241;-67
2021/12/19 17:04:17;;;;;;;24.37;20.17;;;;;;;8.53;60.04;98613.72;8254669;28;20242;-67
2021/12/19 17:08:37;;;;;;;26.03;20.07;;;;;;;8.38;60.05;98614.94;8255147;28;20446;-67
2021/12/19 17:12:46;;;;;;;23.60;19.77;;;;;;;8.25;60.33;98603.22;8254902;28;20234;-67
2021/12/19 17:16:52;;;;;;;25.37;20.57;;;;;;;8.34;60.52;98597.81;8254745;28;20234;-66
2021/12/19 17:20:55;;;;;;;24.53;20.27;;;;;;;8.50;60.15;98606.06;8254570;28;20242;-66
2021/12/19 17:25:00;;;;;;;26.33;20.83;;;;;;;8.49;60.36;98597.47;8254449;28;20238;-66
2021/12/19 17:29:05;;;;;;;26.73;20.57;;;;;;;8.43;60.09;98599.34;8254354;28;20234;-67
2021/12/19 17:33:08;;;;;;;23.30;19.87;;;;;;;8.48;60.00;98606.09;8254284;28;20244;-66
2021/12/19 17:37:11;;;;;;;25.80;20.23;;;;;;;8.40;60.86;98600.25;8253795;28;20237;-67
2021/12/19 17:41:14;;;;;;;23.20;19.00;;;;;;;8.51;60.27;98593.13;8253800;28;20245;-67
2021/12/19 17:45:19;;;;;;;26.00;21.07;;;;;;;8.38;60.92;98592.56;8252788;28;20561;-67
2021/12/19 17:49:21;;;;;;;25.93;21.10;;;;;;;8.52;60.33;98606.88;8253833;28;20238;-66
2021/12/19 17:53:24;;;;;;;23.70;20.37;;;;;;;8.40;60.63;98600.25;8252410;28;20226;-66
2021/12/19 17:57:27;;;;;;;24.20;20.23;;;;;;;8.40;61.00;98608.84;8252632;28;20242;-66
2021/12/19 18:01:32;;;;;;;27.20;22.03;;;;;;;8.34;60.72;98600.41;8252656;28;20245;-66
2021/12/19 18:05:36;;;;;;;28.57;22.57;;;;;;;8.35;61.08;98615.84;8252240;28;20426;-66
2021/12/19 18:09:40;;;;;;;27.00;21.57;;;;;;;8.26;61.40;98612.66;8252036;28;20234;-67
2021/12/19 18:13:43;;;;;;;29.07;23.67;;;;;;;8.51;60.53;98612.91;8252245;28;20230;-66
2021/12/19 18:17:48;;;;;;;35.60;22.00;;;;;;;11.10;80.23;98634.34;8252563;28;20537;-69
2021/12/19 18:21:51;;;;;;;25.23;19.90;;;;;;;12.01;64.93;98625.78;8252994;28;20587;-69
2021/12/19 18:25:58;;;;;;;25.27;21.83;;;;;;;10.48;56.30;98609.72;8252884;28;20246;-75
2021/12/19 18:30:01;;;;;;;25.17;21.80;;;;;;;9.74;57.27;98620.66;8252447;28;20245;-76
2021/12/19 18:34:12;;;;;;;26.87;21.07;;;;;;;9.52;57.85;98624.78;8250994;28;20222;-76
2021/12/19 18:38:17;;;;;;;26.67;21.97;;;;;;;9.17;58.80;98618.88;8219710;28;20231;-74
2021/12/19 18:42:29;;;;;;;28.57;23.20;;;;;;;9.11;58.97;98629.41;8220042;28;20235;-74
2021/12/19 18:46:39;;;;;;;28.57;22.20;;;;;;;8.83;59.88;98627.56;8239429;28;20253;-76
2021/12/19 18:50:58;;;;;;;25.80;21.17;;;;;;;8.85;60.22;98624.94;8251426;28;20245;-75
2021/12/19 18:55:13;;;;;;;27.90;22.53;;;;;;;8.64;60.57;98621.19;8250318;28;20413;-75
2021/12/19 18:59:18;;;;;;;27.47;23.60;;;;;;;8.64;60.27;98634.94;8242678;28;20548;-81
2021/12/19 19:03:27;;;;;;;28.77;22.13;;;;;;;8.67;60.38;98624.53;8251254;28;20532;-74
2021/12/19 19:07:33;;;;;;;31.73;24.13;;;;;;;8.43;60.90;98638.06;8250193;28;20238;-75
2021/12/19 19:11:36;;;;;;;27.03;22.63;;;;;;;8.59;60.89;98647.97;8250556;28;20234;-75
2021/12/19 19:15:39;;;;;;;32.33;25.77;;;;;;;8.83;59.91;98644.78;8250416;28;20407;-73
2021/12/19 19:19:43;;;;;;;27.60;21.87;;;;;;;8.45;61.14;98655.22;8250309;28;20566;-74
2021/12/19 19:23:47;;;;;;;26.33;21.90;;;;;;;8.65;60.85;98652.16;8250553;28;20230;-74
2021/12/19 19:27:50;;;;;;;26.73;21.47;;;;;;;8.57;60.77;98647.19;8250871;28;20230;-74
2021/12/19 19:31:53;;;;;;;27.17;21.67;;;;;;;8.41;61.26;98658.72;8250837;28;20237;-73
2021/12/19 19:35:57;;;;;;;26.37;20.83;;;;;;;8.46;61.26;98644.00;8243887;28;20238;-74
2021/12/19 19:40:16;;;;;;;25.33;20.97;;;;;;;8.51;60.99;98643.88;8250181;28;20238;-73
2021/12/19 19:44:39;;;;;;;27.90;21.27;;;;;;;8.51;61.51;98646.47;8243210;28;20461;-74
2021/12/19 19:49:03;;;;;;;28.20;22.47;;;;;;;8.59;61.04;98641.97;8249558;28;20551;-74
2021/12/19 19:53:10;;;;;;;27.37;21.53;;;;;;;8.50;61.49;98653.38;8250216;28;20241;-75
2021/12/19 19:57:15;;;;;;;26.23;20.20;;;;;;;8.60;60.91;98644.53;8249708;28;20225;-74
2021/12/19 20:01:18;;;;;;;24.43;19.57;;;;;;;8.55;61.02;98641.22;8250307;28;20238;-74
2021/12/19 20:05:23;;;;;;;23.70;19.10;;;;;;;8.63;60.65;98629.84;8249165;28;20230;-74
2021/12/19 20:09:32;;;;;;;21.73;18.17;;;;;;;8.39;61.56;98619.19;8249389;28;20311;-75
2021/12/19 20:13:36;;;;;;;21.63;18.33;;;;;;;8.54;61.42;98624.00;8249854;28;20245;-74